Back to Top

Language: 

My Weather Underground Personal Weather Station Historical Data with Graphs...

Delerius Weather Station Historical Data
Daily Summary for January 25, 2017 Units:  English    Metric   Both
« Previous Day
Next Day »
Daily Weekly Monthly Yearly Custom
  High: Low: Average:
Temperature: 46.3 °F 36.1 °F 40.5 °F
Dew Point: 39.5 °F 33.7 °F 37.1 °F
Humidity: 96 % 71 % 88 %
Wind Speed: 12.0 mph 0.0 mph 4.8 mph
Wind Gust: -999.0 mph - -
Wind:- - South
Pressure: 30.28 in 30.21 in -
Precipitation: 0.00 in    
Historical Graphs
 
 
Tabular Data for January 25, 2017
Time Temperature Dew Point Pressure Wind Wind Speed Wind Gust Humidity Rainfall Rate (Hourly) solar Conditions
00:01 40.8 °F 39.5 °F 30.26 in South 1.0 mph -999.0 mph 95 % 0.00 in 0 W/m2
00:06 40.8 °F 39.5 °F 30.26 in South 1.0 mph -999.0 mph 95 % 0.00 in 0 W/m2
00:11 40.8 °F 39.5 °F 30.26 in South 1.0 mph -999.0 mph 95 % 0.00 in 0 W/m2
00:16 40.8 °F 39.5 °F 30.26 in South 1.0 mph -999.0 mph 95 % 0.00 in 0 W/m2
00:21 40.8 °F 39.5 °F 30.26 in South 1.0 mph -999.0 mph 95 % 0.00 in 0 W/m2
00:26 40.5 °F 39.2 °F 30.26 in Calm   -999.0 mph 95 % 0.00 in 0 W/m2
00:31 40.5 °F 39.2 °F 30.26 in Calm   -999.0 mph 95 % 0.00 in 0 W/m2
00:36 40.5 °F 39.2 °F 30.26 in Calm   -999.0 mph 95 % 0.00 in 0 W/m2
00:41 40.5 °F 39.2 °F 30.25 in South 1.0 mph -999.0 mph 95 % 0.00 in 0 W/m2
00:46 40.5 °F 39.2 °F 30.25 in South 1.0 mph -999.0 mph 95 % 0.00 in 0 W/m2
00:51 40.5 °F 39.2 °F 30.25 in South 1.0 mph -999.0 mph 95 % 0.00 in 0 W/m2
00:56 40.6 °F 39.3 °F 30.25 in SSE 4.0 mph -999.0 mph 95 % 0.00 in 0 W/m2
01:01 40.6 °F 39.3 °F 30.25 in SSE 4.0 mph -999.0 mph 95 % 0.00 in 0 W/m2
01:06 40.6 °F 39.3 °F 30.25 in SSE 4.0 mph -999.0 mph 95 % 0.00 in 0 W/m2
01:11 40.5 °F 39.2 °F 30.25 in South 4.0 mph -999.0 mph 95 % 0.00 in 0 W/m2
01:16 40.5 °F 39.2 °F 30.25 in South 4.0 mph -999.0 mph 95 % 0.00 in 0 W/m2
01:21 40.5 °F 39.2 °F 30.25 in South 4.0 mph -999.0 mph 95 % 0.00 in 0 W/m2
01:26 40.7 °F 39.4 °F 30.25 in SSE 3.0 mph -999.0 mph 95 % 0.00 in 0 W/m2
01:31 40.7 °F 39.4 °F 30.25 in SSE 3.0 mph -999.0 mph 95 % 0.00 in 0 W/m2
01:36 40.7 °F 39.4 °F 30.25 in SSE 3.0 mph -999.0 mph 95 % 0.00 in 0 W/m2
01:41 40.6 °F 39.3 °F 30.24 in SE 3.0 mph -999.0 mph 95 % 0.00 in 0 W/m2
01:46 40.6 °F 39.3 °F 30.24 in SE 3.0 mph -999.0 mph 95 % 0.00 in 0 W/m2
01:51 40.6 °F 39.3 °F 30.24 in SE 3.0 mph -999.0 mph 95 % 0.00 in 0 W/m2
01:56 40.4 °F 39.1 °F 30.25 in SE 1.0 mph -999.0 mph 95 % 0.00 in 0 W/m2
02:01 40.4 °F 39.1 °F 30.25 in SE 1.0 mph -999.0 mph 95 % 0.00 in 0 W/m2
02:06 40.4 °F 39.1 °F 30.25 in SE 1.0 mph -999.0 mph 95 % 0.00 in 0 W/m2
02:11 40.5 °F 39.2 °F 30.25 in SSW 3.0 mph -999.0 mph 95 % 0.00 in 0 W/m2
02:16 40.5 °F 39.2 °F 30.25 in SSW 3.0 mph -999.0 mph 95 % 0.00 in 0 W/m2
02:21 40.5 °F 39.2 °F 30.25 in SSW 3.0 mph -999.0 mph 95 % 0.00 in 0 W/m2
02:26 41.0 °F 39.4 °F 30.25 in SW 4.0 mph -999.0 mph 94 % 0.00 in 0 W/m2
02:31 41.0 °F 39.4 °F 30.25 in SW 4.0 mph -999.0 mph 94 % 0.00 in 0 W/m2
02:36 41.0 °F 39.4 °F 30.25 in SW 4.0 mph -999.0 mph 94 % 0.00 in 0 W/m2
02:41 41.2 °F 39.3 °F 30.25 in SW 3.0 mph -999.0 mph 93 % 0.00 in 0 W/m2
02:46 41.2 °F 39.3 °F 30.25 in SW 3.0 mph -999.0 mph 93 % 0.00 in 0 W/m2
02:51 41.2 °F 39.3 °F 30.25 in SW 3.0 mph -999.0 mph 93 % 0.00 in 0 W/m2
02:56 41.0 °F 39.1 °F 30.25 in SSW 1.0 mph -999.0 mph 93 % 0.00 in 0 W/m2
03:01 41.0 °F 39.1 °F 30.25 in SSW 1.0 mph -999.0 mph 93 % 0.00 in 0 W/m2
03:06 41.0 °F 39.1 °F 30.25 in SSW 1.0 mph -999.0 mph 93 % 0.00 in 0 W/m2
03:11 40.4 °F 38.8 °F 30.25 in Calm   -999.0 mph 94 % 0.00 in 0 W/m2
03:16 40.4 °F 38.8 °F 30.25 in Calm   -999.0 mph 94 % 0.00 in 0 W/m2
03:21 40.4 °F 38.8 °F 30.25 in Calm   -999.0 mph 94 % 0.00 in 0 W/m2
03:26 40.1 °F 38.5 °F 30.26 in ESE 1.0 mph -999.0 mph 94 % 0.00 in 0 W/m2
03:31 40.1 °F 38.5 °F 30.26 in ESE 1.0 mph -999.0 mph 94 % 0.00 in 0 W/m2
03:36 40.1 °F 38.5 °F 30.26 in ESE 1.0 mph -999.0 mph 94 % 0.00 in 0 W/m2
03:41 39.6 °F 37.7 °F 30.26 in ESE 1.0 mph -999.0 mph 93 % 0.00 in 0 W/m2
03:46 39.6 °F 37.7 °F 30.26 in ESE 1.0 mph -999.0 mph 93 % 0.00 in 0 W/m2
03:51 39.6 °F 37.7 °F 30.26 in ESE 1.0 mph -999.0 mph 93 % 0.00 in 0 W/m2
03:56 39.2 °F 37.6 °F 30.26 in SE 4.0 mph -999.0 mph 94 % 0.00 in 0 W/m2
04:01 39.2 °F 37.6 °F 30.26 in SE 4.0 mph -999.0 mph 94 % 0.00 in 0 W/m2
04:06 39.2 °F 37.6 °F 30.26 in SE 4.0 mph -999.0 mph 94 % 0.00 in 0 W/m2
04:11 39.2 °F 37.9 °F 30.25 in South 2.0 mph -999.0 mph 95 % 0.00 in 0 W/m2
04:16 39.2 °F 37.9 °F 30.25 in South 2.0 mph -999.0 mph 95 % 0.00 in 0 W/m2
04:21 39.2 °F 37.9 °F 30.25 in South 2.0 mph -999.0 mph 95 % 0.00 in 0 W/m2
04:26 39.5 °F 38.2 °F 30.25 in South 4.0 mph -999.0 mph 95 % 0.00 in 0 W/m2
04:31 39.5 °F 38.2 °F 30.25 in South 4.0 mph -999.0 mph 95 % 0.00 in 0 W/m2
04:36 39.5 °F 38.2 °F 30.25 in South 4.0 mph -999.0 mph 95 % 0.00 in 0 W/m2
04:41 39.4 °F 37.8 °F 30.25 in SSE 3.0 mph -999.0 mph 94 % 0.00 in 0 W/m2
04:46 39.4 °F 37.8 °F 30.25 in SSE 3.0 mph -999.0 mph 94 % 0.00 in 0 W/m2
04:51 39.4 °F 37.8 °F 30.25 in SSE 3.0 mph -999.0 mph 94 % 0.00 in 0 W/m2
04:56 39.0 °F 37.4 °F 30.25 in SE 4.0 mph -999.0 mph 94 % 0.00 in 0 W/m2
05:01 39.0 °F 37.4 °F 30.25 in SE 4.0 mph -999.0 mph 94 % 0.00 in 0 W/m2
05:06 39.0 °F 37.4 °F 30.25 in SE 4.0 mph -999.0 mph 94 % 0.00 in 0 W/m2
05:11 38.5 °F 36.9 °F 30.25 in SE 3.0 mph -999.0 mph 94 % 0.00 in 0 W/m2
05:16 38.5 °F 36.9 °F 30.25 in SE 3.0 mph -999.0 mph 94 % 0.00 in 0 W/m2
05:21 38.5 °F 36.9 °F 30.25 in SE 3.0 mph -999.0 mph 94 % 0.00 in 0 W/m2
05:26 38.0 °F 36.7 °F 30.25 in ESE 3.0 mph -999.0 mph 95 % 0.00 in 0 W/m2
05:31 38.0 °F 36.7 °F 30.25 in ESE 3.0 mph -999.0 mph 95 % 0.00 in 0 W/m2
05:36 38.0 °F 36.7 °F 30.25 in ESE 3.0 mph -999.0 mph 95 % 0.00 in 0 W/m2
05:41 37.7 °F 36.4 °F 30.25 in East 3.0 mph -999.0 mph 95 % 0.00 in 0 W/m2
05:46 37.7 °F 36.4 °F 30.25 in East 3.0 mph -999.0 mph 95 % 0.00 in 0 W/m2
05:51 37.7 °F 36.4 °F 30.25 in East 3.0 mph -999.0 mph 95 % 0.00 in 0 W/m2
05:56 37.5 °F 36.2 °F 30.25 in ESE 2.0 mph -999.0 mph 95 % 0.00 in 0 W/m2
06:01 37.5 °F 36.2 °F 30.25 in ESE 2.0 mph -999.0 mph 95 % 0.00 in 0 W/m2
06:06 37.5 °F 36.2 °F 30.25 in ESE 2.0 mph -999.0 mph 95 % 0.00 in 0 W/m2
06:11 37.2 °F 36.2 °F 30.25 in SSE 3.0 mph -999.0 mph 96 % 0.00 in 0 W/m2
06:16 37.2 °F 36.2 °F 30.25 in SSE 3.0 mph -999.0 mph 96 % 0.00 in 0 W/m2
06:21 37.2 °F 36.2 °F 30.25 in SSE 3.0 mph -999.0 mph 96 % 0.00 in 0 W/m2
06:26 37.7 °F 36.4 °F 30.25 in SSE 4.0 mph -999.0 mph 95 % 0.00 in 0 W/m2
06:31 37.7 °F 36.4 °F 30.25 in SSE 4.0 mph -999.0 mph 95 % 0.00 in 0 W/m2
06:36 37.7 °F 36.4 °F 30.25 in SSE 4.0 mph -999.0 mph 95 % 0.00 in 0 W/m2
06:41 37.4 °F 36.1 °F 30.25 in SE 3.0 mph -999.0 mph 95 % 0.00 in 0 W/m2
06:46 37.4 °F 36.1 °F 30.25 in SE 3.0 mph -999.0 mph 95 % 0.00 in 0 W/m2
06:51 37.4 °F 36.1 °F 30.25 in SE 3.0 mph -999.0 mph 95 % 0.00 in 0 W/m2
06:56 36.9 °F 35.9 °F 30.25 in South 1.0 mph -999.0 mph 96 % 0.00 in 0 W/m2
07:01 36.9 °F 35.9 °F 30.25 in South 1.0 mph -999.0 mph 96 % 0.00 in 0 W/m2
07:06 36.9 °F 35.9 °F 30.25 in South 1.0 mph -999.0 mph 96 % 0.00 in 0 W/m2
07:11 37.3 °F 36.3 °F 30.25 in SSE 3.0 mph -999.0 mph 96 % 0.00 in 0 W/m2
07:16 37.3 °F 36.3 °F 30.25 in SSE 3.0 mph -999.0 mph 96 % 0.00 in 0 W/m2
07:21 37.3 °F 36.3 °F 30.25 in SSE 3.0 mph -999.0 mph 96 % 0.00 in 0 W/m2
07:26 37.3 °F 36.3 °F 30.25 in SSW 3.0 mph -999.0 mph 96 % 0.00 in 0 W/m2
07:31 37.3 °F 36.3 °F 30.25 in SSW 3.0 mph -999.0 mph 96 % 0.00 in 0 W/m2
07:36 37.3 °F 36.3 °F 30.25 in SSW 3.0 mph -999.0 mph 96 % 0.00 in 0 W/m2
07:41 37.7 °F 36.7 °F 30.25 in SSW 5.0 mph -999.0 mph 96 % 0.00 in 0 W/m2
07:46 37.7 °F 36.7 °F 30.25 in SSW 5.0 mph -999.0 mph 96 % 0.00 in 0 W/m2
07:51 37.7 °F 36.7 °F 30.25 in SSW 5.0 mph -999.0 mph 96 % 0.00 in 0 W/m2
07:56 38.5 °F 37.5 °F 30.26 in SSW 6.0 mph -999.0 mph 96 % 0.00 in 2 W/m2
08:01 38.5 °F 37.5 °F 30.26 in SSW 6.0 mph -999.0 mph 96 % 0.00 in 2 W/m2
08:06 38.5 °F 37.5 °F 30.26 in SSW 6.0 mph -999.0 mph 96 % 0.00 in 2 W/m2
08:11 38.9 °F 37.6 °F 30.26 in SSW 4.0 mph -999.0 mph 95 % 0.00 in 9 W/m2
08:16 38.9 °F 37.6 °F 30.26 in SSW 4.0 mph -999.0 mph 95 % 0.00 in 9 W/m2
08:21 38.9 °F 37.6 °F 30.26 in SSW 4.0 mph -999.0 mph 95 % 0.00 in 9 W/m2
08:26 39.0 °F 37.4 °F 30.26 in West 1.0 mph -999.0 mph 94 % 0.00 in 15 W/m2
08:31 39.0 °F 37.4 °F 30.26 in West 1.0 mph -999.0 mph 94 % 0.00 in 15 W/m2
08:36 39.0 °F 37.4 °F 30.26 in West 1.0 mph -999.0 mph 94 % 0.00 in 15 W/m2
08:41 38.7 °F 37.1 °F 30.27 in SE 2.0 mph -999.0 mph 94 % 0.00 in 22 W/m2
08:46 38.7 °F 37.1 °F 30.27 in SE 2.0 mph -999.0 mph 94 % 0.00 in 22 W/m2
08:51 38.7 °F 37.1 °F 30.27 in SE 2.0 mph -999.0 mph 94 % 0.00 in 22 W/m2
08:56 38.7 °F 37.1 °F 30.27 in ESE 2.0 mph -999.0 mph 94 % 0.00 in 27 W/m2
09:01 38.7 °F 37.1 °F 30.27 in ESE 2.0 mph -999.0 mph 94 % 0.00 in 27 W/m2
09:06 38.7 °F 37.1 °F 30.27 in ESE 2.0 mph -999.0 mph 94 % 0.00 in 27 W/m2
09:11 38.7 °F 37.1 °F 30.27 in SE 3.0 mph -999.0 mph 94 % 0.00 in 31 W/m2
09:16 38.7 °F 37.1 °F 30.27 in SE 3.0 mph -999.0 mph 94 % 0.00 in 31 W/m2
09:21 38.7 °F 37.1 °F 30.27 in SE 3.0 mph -999.0 mph 94 % 0.00 in 31 W/m2
09:26 38.9 °F 37.0 °F 30.27 in SE 1.0 mph -999.0 mph 93 % 0.00 in 38 W/m2
09:31 38.9 °F 37.0 °F 30.27 in SE 1.0 mph -999.0 mph 93 % 0.00 in 38 W/m2
09:36 38.9 °F 37.0 °F 30.27 in SE 1.0 mph -999.0 mph 93 % 0.00 in 38 W/m2
09:41 39.4 °F 37.5 °F 30.28 in SE 2.0 mph -999.0 mph 93 % 0.00 in 170 W/m2
09:46 39.4 °F 37.5 °F 30.28 in SE 2.0 mph -999.0 mph 93 % 0.00 in 170 W/m2
09:51 39.4 °F 37.5 °F 30.28 in SE 2.0 mph -999.0 mph 93 % 0.00 in 170 W/m2
09:56 40.6 °F 38.2 °F 30.27 in SE 2.0 mph -999.0 mph 91 % 0.00 in 192 W/m2
10:01 40.6 °F 38.2 °F 30.27 in SE 2.0 mph -999.0 mph 91 % 0.00 in 192 W/m2
10:06 40.6 °F 38.2 °F 30.27 in SE 2.0 mph -999.0 mph 91 % 0.00 in 192 W/m2
10:11 41.5 °F 38.8 °F 30.27 in ESE 2.0 mph -999.0 mph 90 % 0.00 in 216 W/m2
10:16 41.5 °F 38.8 °F 30.27 in ESE 2.0 mph -999.0 mph 90 % 0.00 in 216 W/m2
10:21 41.5 °F 38.8 °F 30.27 in ESE 2.0 mph -999.0 mph 90 % 0.00 in 216 W/m2
10:26 42.4 °F 39.4 °F 30.27 in SE 1.0 mph -999.0 mph 89 % 0.00 in 241 W/m2
10:31 42.4 °F 39.4 °F 30.27 in SE 1.0 mph -999.0 mph 89 % 0.00 in 241 W/m2
10:36 42.4 °F 39.4 °F 30.27 in SE 1.0 mph -999.0 mph 89 % 0.00 in 241 W/m2
10:41 43.4 °F 38.9 °F 30.28 in SSW 4.0 mph -999.0 mph 84 % 0.00 in 261 W/m2
10:46 43.4 °F 38.9 °F 30.28 in SSW 4.0 mph -999.0 mph 84 % 0.00 in 261 W/m2
10:51 43.4 °F 38.9 °F 30.28 in SSW 4.0 mph -999.0 mph 84 % 0.00 in 261 W/m2
10:56 44.1 °F 38.6 °F 30.27 in SSW 7.0 mph -999.0 mph 81 % 0.00 in 277 W/m2
11:01 44.1 °F 38.6 °F 30.27 in SSW 7.0 mph -999.0 mph 81 % 0.00 in 277 W/m2
11:06 44.1 °F 38.6 °F 30.27 in SSW 7.0 mph -999.0 mph 81 % 0.00 in 277 W/m2
11:11 44.6 °F 38.8 °F 30.27 in SSW 8.0 mph -999.0 mph 80 % 0.00 in 295 W/m2
11:16 44.6 °F 38.8 °F 30.27 in SSW 8.0 mph -999.0 mph 80 % 0.00 in 295 W/m2
11:21 44.6 °F 38.8 °F 30.27 in SSW 8.0 mph -999.0 mph 80 % 0.00 in 295 W/m2
11:26 45.0 °F 38.9 °F 30.27 in SSW 9.0 mph -999.0 mph 79 % 0.00 in 305 W/m2
11:31 45.0 °F 38.9 °F 30.27 in SSW 9.0 mph -999.0 mph 79 % 0.00 in 305 W/m2
11:36 45.0 °F 38.9 °F 30.27 in SSW 9.0 mph -999.0 mph 79 % 0.00 in 305 W/m2
11:41 45.3 °F 38.8 °F 30.27 in SSW 11.0 mph -999.0 mph 78 % 0.00 in 312 W/m2
11:46 45.3 °F 38.8 °F 30.27 in SSW 11.0 mph -999.0 mph 78 % 0.00 in 312 W/m2
11:51 45.3 °F 38.8 °F 30.27 in SSW 11.0 mph -999.0 mph 78 % 0.00 in 312 W/m2
11:56 45.3 °F 38.5 °F 30.26 in SW 10.0 mph -999.0 mph 77 % 0.00 in 315 W/m2
12:01 45.3 °F 38.5 °F 30.26 in SW 10.0 mph -999.0 mph 77 % 0.00 in 315 W/m2
12:06 45.3 °F 38.5 °F 30.26 in SW 10.0 mph -999.0 mph 77 % 0.00 in 315 W/m2
12:11 45.6 °F 38.1 °F 30.25 in SW 11.0 mph -999.0 mph 75 % 0.00 in 319 W/m2
12:16 45.6 °F 38.1 °F 30.25 in SW 11.0 mph -999.0 mph 75 % 0.00 in 319 W/m2
12:21 45.6 °F 38.1 °F 30.25 in SW 11.0 mph -999.0 mph 75 % 0.00 in 319 W/m2
12:26 46.1 °F 38.3 °F 30.25 in SSW 10.0 mph -999.0 mph 74 % 0.00 in 320 W/m2
12:31 46.1 °F 38.3 °F 30.25 in SSW 10.0 mph -999.0 mph 74 % 0.00 in 320 W/m2
12:36 46.1 °F 38.3 °F 30.25 in SSW 10.0 mph -999.0 mph 74 % 0.00 in 320 W/m2
12:41 46.1 °F 38.3 °F 30.25 in SSW 11.0 mph -999.0 mph 74 % 0.00 in 317 W/m2
12:46 46.1 °F 38.3 °F 30.25 in SSW 11.0 mph -999.0 mph 74 % 0.00 in 317 W/m2
12:51 46.1 °F 38.3 °F 30.25 in SSW 11.0 mph -999.0 mph 74 % 0.00 in 317 W/m2
12:56 46.0 °F 38.2 °F 30.25 in SSW 12.0 mph -999.0 mph 74 % 0.00 in 311 W/m2
13:01 46.0 °F 38.2 °F 30.25 in SSW 12.0 mph -999.0 mph 74 % 0.00 in 311 W/m2
13:06 46.0 °F 38.2 °F 30.25 in SSW 12.0 mph -999.0 mph 74 % 0.00 in 311 W/m2
13:11 46.3 °F 37.8 °F 30.24 in SW 11.0 mph -999.0 mph 72 % 0.00 in 304 W/m2
13:16 46.3 °F 37.8 °F 30.24 in SW 11.0 mph -999.0 mph 72 % 0.00 in 304 W/m2
13:21 46.3 °F 37.8 °F 30.24 in SW 11.0 mph -999.0 mph 72 % 0.00 in 304 W/m2
13:26 46.2 °F 37.7 °F 30.24 in SSW 11.0 mph -999.0 mph 72 % 0.00 in 293 W/m2
13:31 46.2 °F 37.7 °F 30.24 in SSW 11.0 mph -999.0 mph 72 % 0.00 in 293 W/m2
13:36 46.2 °F 37.7 °F 30.24 in SSW 11.0 mph -999.0 mph 72 % 0.00 in 293 W/m2
13:41 46.0 °F 37.8 °F 30.24 in SW 11.0 mph -999.0 mph 73 % 0.00 in 277 W/m2
13:46 46.0 °F 37.8 °F 30.24 in SW 11.0 mph -999.0 mph 73 % 0.00 in 277 W/m2
13:51 46.0 °F 37.8 °F 30.24 in SW 11.0 mph -999.0 mph 73 % 0.00 in 277 W/m2
13:56 46.1 °F 37.9 °F 30.23 in SSW 11.0 mph -999.0 mph 73 % 0.00 in 261 W/m2
14:01 46.1 °F 37.9 °F 30.23 in SSW 11.0 mph -999.0 mph 73 % 0.00 in 261 W/m2
14:06 46.1 °F 37.9 °F 30.23 in SSW 11.0 mph -999.0 mph 73 % 0.00 in 261 W/m2
14:11 46.2 °F 38.0 °F 30.23 in SW 10.0 mph -999.0 mph 73 % 0.00 in 243 W/m2
14:16 46.2 °F 38.0 °F 30.23 in SW 10.0 mph -999.0 mph 73 % 0.00 in 243 W/m2
14:21 46.2 °F 38.0 °F 30.23 in SW 10.0 mph -999.0 mph 73 % 0.00 in 243 W/m2
14:26 46.3 °F 37.4 °F 30.23 in SSW 11.0 mph -999.0 mph 71 % 0.00 in 222 W/m2
14:31 46.3 °F 37.4 °F 30.23 in SSW 11.0 mph -999.0 mph 71 % 0.00 in 222 W/m2
14:36 46.3 °F 37.4 °F 30.23 in SSW 11.0 mph -999.0 mph 71 % 0.00 in 222 W/m2
14:41 46.3 °F 37.8 °F 30.23 in SW 10.0 mph -999.0 mph 72 % 0.00 in 197 W/m2
14:46 46.3 °F 37.8 °F 30.23 in SW 10.0 mph -999.0 mph 72 % 0.00 in 197 W/m2
14:51 46.3 °F 37.8 °F 30.23 in SW 10.0 mph -999.0 mph 72 % 0.00 in 197 W/m2
14:56 46.2 °F 37.3 °F 30.23 in SW 9.0 mph -999.0 mph 71 % 0.00 in 172 W/m2
15:01 46.2 °F 37.3 °F 30.23 in SW 9.0 mph -999.0 mph 71 % 0.00 in 172 W/m2
15:06 46.2 °F 37.3 °F 30.23 in SW 9.0 mph -999.0 mph 71 % 0.00 in 172 W/m2
15:11 45.8 °F 37.6 °F 30.23 in SW 10.0 mph -999.0 mph 73 % 0.00 in 144 W/m2
15:16 45.8 °F 37.6 °F 30.23 in SW 10.0 mph -999.0 mph 73 % 0.00 in 144 W/m2
15:21 45.8 °F 37.6 °F 30.23 in SW 10.0 mph -999.0 mph 73 % 0.00 in 144 W/m2
15:26 45.1 °F 37.6 °F 30.23 in SW 5.0 mph -999.0 mph 75 % 0.00 in 92 W/m2
15:31 45.1 °F 37.6 °F 30.23 in SW 5.0 mph -999.0 mph 75 % 0.00 in 92 W/m2
15:36 45.1 °F 37.6 °F 30.23 in SW 5.0 mph -999.0 mph 75 % 0.00 in 92 W/m2
15:41 44.6 °F 37.8 °F 30.22 in SSW 7.0 mph -999.0 mph 77 % 0.00 in 26 W/m2
15:46 44.6 °F 37.8 °F 30.22 in SSW 7.0 mph -999.0 mph 77 % 0.00 in 26 W/m2
15:51 44.6 °F 37.8 °F 30.22 in SSW 7.0 mph -999.0 mph 77 % 0.00 in 26 W/m2
15:56 44.1 °F 37.7 °F 30.22 in SW 4.0 mph -999.0 mph 78 % 0.00 in 21 W/m2
16:01 44.1 °F 37.7 °F 30.22 in SW 4.0 mph -999.0 mph 78 % 0.00 in 21 W/m2
16:06 44.1 °F 37.7 °F 30.22 in SW 4.0 mph -999.0 mph 78 % 0.00 in 21 W/m2
16:11 43.7 °F 37.6 °F 30.22 in SW 3.0 mph -999.0 mph 79 % 0.00 in 17 W/m2
16:16 43.7 °F 37.6 °F 30.22 in SW 3.0 mph -999.0 mph 79 % 0.00 in 17 W/m2
16:21 43.7 °F 37.6 °F 30.22 in SW 3.0 mph -999.0 mph 79 % 0.00 in 17 W/m2
16:26 43.2 °F 37.8 °F 30.22 in South 3.0 mph -999.0 mph 81 % 0.00 in 10 W/m2
16:31 43.2 °F 37.8 °F 30.22 in South 3.0 mph -999.0 mph 81 % 0.00 in 10 W/m2
16:36 43.2 °F 37.8 °F 30.22 in South 3.0 mph -999.0 mph 81 % 0.00 in 10 W/m2
16:41 42.6 °F 37.5 °F 30.22 in SSW 3.0 mph -999.0 mph 82 % 0.00 in 3 W/m2
16:46 42.6 °F 37.5 °F 30.22 in SSW 3.0 mph -999.0 mph 82 % 0.00 in 3 W/m2
16:51 42.6 °F 37.5 °F 30.22 in SSW 3.0 mph -999.0 mph 82 % 0.00 in 3 W/m2
16:56 42.0 °F 37.2 °F 30.22 in SSE 1.0 mph -999.0 mph 83 % 0.00 in 0 W/m2
17:01 42.0 °F 37.2 °F 30.22 in SSE 1.0 mph -999.0 mph 83 % 0.00 in 0 W/m2
17:06 42.0 °F 37.2 °F 30.22 in SSE 1.0 mph -999.0 mph 83 % 0.00 in 0 W/m2
17:11 41.4 °F 37.2 °F 30.22 in SSE 1.0 mph -999.0 mph 85 % 0.00 in 0 W/m2
17:16 41.4 °F 37.2 °F 30.22 in SSE 1.0 mph -999.0 mph 85 % 0.00 in 0 W/m2
17:21 41.4 °F 37.2 °F 30.22 in SSE 1.0 mph -999.0 mph 85 % 0.00 in 0 W/m2
17:26 40.9 °F 36.7 °F 30.22 in SSW 1.0 mph -999.0 mph 85 % 0.00 in 0 W/m2
17:31 40.9 °F 36.7 °F 30.22 in SSW 1.0 mph -999.0 mph 85 % 0.00 in 0 W/m2
17:36 40.9 °F 36.7 °F 30.22 in SSW 1.0 mph -999.0 mph 85 % 0.00 in 0 W/m2
17:41 40.1 °F 36.5 °F 30.22 in SSW 2.0 mph -999.0 mph 87 % 0.00 in 0 W/m2
17:46 40.1 °F 36.5 °F 30.22 in SSW 2.0 mph -999.0 mph 87 % 0.00 in 0 W/m2
17:51 40.1 °F 36.5 °F 30.22 in SSW 2.0 mph -999.0 mph 87 % 0.00 in 0 W/m2
17:56 39.3 °F 36.3 °F 30.23 in SE 4.0 mph -999.0 mph 89 % 0.00 in 0 W/m2
18:01 39.3 °F 36.3 °F 30.23 in SE 4.0 mph -999.0 mph 89 % 0.00 in 0 W/m2
18:06 39.3 °F 36.3 °F 30.23 in SE 4.0 mph -999.0 mph 89 % 0.00 in 0 W/m2
18:11 38.7 °F 36.0 °F 30.23 in SE 4.0 mph -999.0 mph 90 % 0.00 in 0 W/m2
18:16 38.7 °F 36.0 °F 30.23 in SE 4.0 mph -999.0 mph 90 % 0.00 in 0 W/m2
18:21 38.7 °F 36.0 °F 30.23 in SE 4.0 mph -999.0 mph 90 % 0.00 in 0 W/m2
18:26 38.1 °F 35.7 °F 30.23 in SSE 4.0 mph -999.0 mph 91 % 0.00 in 0 W/m2
18:31 38.1 °F 35.7 °F 30.23 in SSE 4.0 mph -999.0 mph 91 % 0.00 in 0 W/m2
18:36 38.1 °F 35.7 °F 30.23 in SSE 4.0 mph -999.0 mph 91 % 0.00 in 0 W/m2
18:41 37.6 °F 35.5 °F 30.23 in SSE 7.0 mph -999.0 mph 92 % 0.00 in 0 W/m2
18:46 37.6 °F 35.5 °F 30.23 in SSE 7.0 mph -999.0 mph 92 % 0.00 in 0 W/m2
18:51 37.6 °F 35.5 °F 30.23 in SSE 7.0 mph -999.0 mph 92 % 0.00 in 0 W/m2
18:56 37.6 °F 35.5 °F 30.23 in SSE 7.0 mph -999.0 mph 92 % 0.00 in 0 W/m2
19:01 37.6 °F 35.5 °F 30.23 in SSE 7.0 mph -999.0 mph 92 % 0.00 in 0 W/m2
19:06 37.6 °F 35.5 °F 30.23 in SSE 7.0 mph -999.0 mph 92 % 0.00 in 0 W/m2
19:11 37.9 °F 35.5 °F 30.23 in South 8.0 mph -999.0 mph 91 % 0.00 in 0 W/m2
19:16 37.9 °F 35.5 °F 30.23 in South 8.0 mph -999.0 mph 91 % 0.00 in 0 W/m2
19:21 37.9 °F 35.5 °F 30.23 in South 8.0 mph -999.0 mph 91 % 0.00 in 0 W/m2
19:26 38.0 °F 35.3 °F 30.23 in SSW 7.0 mph -999.0 mph 90 % 0.00 in 0 W/m2
19:31 38.0 °F 35.3 °F 30.23 in SSW 7.0 mph -999.0 mph 90 % 0.00 in 0 W/m2
19:36 38.0 °F 35.3 °F 30.23 in SSW 7.0 mph -999.0 mph 90 % 0.00 in 0 W/m2
19:41 38.0 °F 35.3 °F 30.23 in SSW 7.0 mph -999.0 mph 90 % 0.00 in 0 W/m2
19:46 38.0 °F 35.3 °F 30.23 in SSW 7.0 mph -999.0 mph 90 % 0.00 in 0 W/m2
19:51 38.0 °F 35.3 °F 30.23 in SSW 7.0 mph -999.0 mph 90 % 0.00 in 0 W/m2
19:56 37.9 °F 34.9 °F 30.23 in SSW 6.0 mph -999.0 mph 89 % 0.00 in 0 W/m2
20:01 37.9 °F 34.9 °F 30.23 in SSW 6.0 mph -999.0 mph 89 % 0.00 in 0 W/m2
20:06 37.9 °F 34.9 °F 30.23 in SSW 6.0 mph -999.0 mph 89 % 0.00 in 0 W/m2
20:11 37.9 °F 34.9 °F 30.24 in SSW 2.0 mph -999.0 mph 89 % 0.00 in 0 W/m2
20:16 37.9 °F 34.9 °F 30.24 in SSW 2.0 mph -999.0 mph 89 % 0.00 in 0 W/m2
20:21 37.9 °F 34.9 °F 30.24 in SSW 2.0 mph -999.0 mph 89 % 0.00 in 0 W/m2
20:26 37.9 °F 34.9 °F 30.24 in South 6.0 mph -999.0 mph 89 % 0.00 in 0 W/m2
20:31 37.9 °F 34.9 °F 30.24 in South 6.0 mph -999.0 mph 89 % 0.00 in 0 W/m2
20:36 37.9 °F 34.9 °F 30.24 in South 6.0 mph -999.0 mph 89 % 0.00 in 0 W/m2
20:41 37.9 °F 34.7 °F 30.24 in South 6.0 mph -999.0 mph 88 % 0.00 in 0 W/m2
20:46 37.9 °F 34.7 °F 30.24 in South 6.0 mph -999.0 mph 88 % 0.00 in 0 W/m2
20:51 37.9 °F 34.7 °F 30.24 in South 6.0 mph -999.0 mph 88 % 0.00 in 0 W/m2
20:56 37.7 °F 34.5 °F 30.24 in South 6.0 mph -999.0 mph 88 % 0.00 in 0 W/m2
21:01 37.7 °F 34.5 °F 30.24 in South 6.0 mph -999.0 mph 88 % 0.00 in 0 W/m2
21:06 37.7 °F 34.5 °F 30.24 in South 6.0 mph -999.0 mph 88 % 0.00 in 0 W/m2
21:11 37.6 °F 34.4 °F 30.24 in South 5.0 mph -999.0 mph 88 % 0.00 in 0 W/m2
21:16 37.6 °F 34.4 °F 30.24 in South 5.0 mph -999.0 mph 88 % 0.00 in 0 W/m2
21:21 37.6 °F 34.4 °F 30.24 in South 5.0 mph -999.0 mph 88 % 0.00 in 0 W/m2
21:26 37.6 °F 34.4 °F 30.23 in SSW 4.0 mph -999.0 mph 88 % 0.00 in 0 W/m2
21:31 37.6 °F 34.4 °F 30.23 in SSW 4.0 mph -999.0 mph 88 % 0.00 in 0 W/m2
21:36 37.6 °F 34.4 °F 30.23 in SSW 4.0 mph -999.0 mph 88 % 0.00 in 0 W/m2
21:41 37.7 °F 34.8 °F 30.23 in South 5.0 mph -999.0 mph 89 % 0.00 in 0 W/m2
21:46 37.7 °F 34.8 °F 30.23 in South 5.0 mph -999.0 mph 89 % 0.00 in 0 W/m2
21:51 37.7 °F 34.8 °F 30.23 in South 5.0 mph -999.0 mph 89 % 0.00 in 0 W/m2
21:56 37.7 °F 34.8 °F 30.23 in South 5.0 mph -999.0 mph 89 % 0.00 in 0 W/m2
22:01 37.7 °F 34.8 °F 30.23 in South 5.0 mph -999.0 mph 89 % 0.00 in 0 W/m2
22:06 37.7 °F 34.8 °F 30.23 in South 5.0 mph -999.0 mph 89 % 0.00 in 0 W/m2
22:11 37.4 °F 34.5 °F 30.23 in SSE 6.0 mph -999.0 mph 89 % 0.00 in 0 W/m2
22:16 37.4 °F 34.5 °F 30.23 in SSE 6.0 mph -999.0 mph 89 % 0.00 in 0 W/m2
22:21 37.4 °F 34.5 °F 30.23 in SSE 6.0 mph -999.0 mph 89 % 0.00 in 0 W/m2
22:26 37.1 °F 34.4 °F 30.23 in SSE 6.0 mph -999.0 mph 90 % 0.00 in 0 W/m2
22:31 37.1 °F 34.4 °F 30.23 in SSE 6.0 mph -999.0 mph 90 % 0.00 in 0 W/m2
22:36 37.1 °F 34.4 °F 30.23 in SSE 6.0 mph -999.0 mph 90 % 0.00 in 0 W/m2
22:41 36.8 °F 33.9 °F 30.23 in South 7.0 mph -999.0 mph 89 % 0.00 in 0 W/m2
22:46 36.8 °F 33.9 °F 30.23 in South 7.0 mph -999.0 mph 89 % 0.00 in 0 W/m2
22:51 36.8 °F 33.9 °F 30.23 in South 7.0 mph -999.0 mph 89 % 0.00 in 0 W/m2
22:56 36.7 °F 34.0 °F 30.23 in SSE 8.0 mph -999.0 mph 90 % 0.00 in 0 W/m2
23:01 36.7 °F 34.0 °F 30.23 in SSE 8.0 mph -999.0 mph 90 % 0.00 in 0 W/m2
23:06 36.7 °F 34.0 °F 30.23 in SSE 8.0 mph -999.0 mph 90 % 0.00 in 0 W/m2
23:11 36.5 °F 34.1 °F 30.22 in SSE 8.0 mph -999.0 mph 91 % 0.00 in 0 W/m2
23:16 36.5 °F 34.1 °F 30.22 in SSE 8.0 mph -999.0 mph 91 % 0.00 in 0 W/m2
23:21 36.5 °F 34.1 °F 30.22 in SSE 8.0 mph -999.0 mph 91 % 0.00 in 0 W/m2
23:26 36.2 °F 33.8 °F 30.22 in SSE 7.0 mph -999.0 mph 91 % 0.00 in 0 W/m2
23:31 36.2 °F 33.8 °F 30.22 in SSE 7.0 mph -999.0 mph 91 % 0.00 in 0 W/m2
23:36 36.2 °F 33.8 °F 30.22 in SSE 7.0 mph -999.0 mph 91 % 0.00 in 0 W/m2
23:41 36.1 °F 33.7 °F 30.21 in SSE 5.0 mph -999.0 mph 91 % 0.00 in 0 W/m2
23:46 36.1 °F 33.7 °F 30.21 in SSE 5.0 mph -999.0 mph 91 % 0.00 in 0 W/m2
23:51 36.1 °F 33.7 °F 30.21 in SSE 5.0 mph -999.0 mph 91 % 0.00 in 0 W/m2
23:56 36.2 °F 33.8 °F 30.21 in South 4.0 mph -999.0 mph 91 % 0.00 in 0 W/m2
Delerius-Weather
Compliments of Weather Underground - 2.25 mb

Data updates at regular intervals.